Time;durP1;ratioP1;P1;durP2;ratioP2;P2;SDS_P1;SDS_P2;PMS_P1;PMS_P2;Temp;Humidity;BMP_temperature;BMP_pressure;BME280_temperature;BME280_humidity;BME280_pressure;Samples;Min_cycle;Max_cycle;Signal;HPM_P1;HPM_P2
2022/11/02 00:01:28;;;;;;;33.53;15.03;;;;;;;10.49;81.55;95502.34;5000604;28;20682;-80
2022/11/02 00:03:54;;;;;;;35.67;14.97;;;;;;;10.51;81.32;95513.50;5007121;28;20538;-80
2022/11/02 00:06:19;;;;;;;29.30;15.10;;;;;;;10.53;81.15;95506.22;4998718;28;20212;-80
2022/11/02 00:08:44;;;;;;;31.33;14.27;;;;;;;10.48;82.01;95505.97;5006605;28;20227;-80
2022/11/02 00:11:10;;;;;;;32.97;15.30;;;;;;;10.52;81.67;95507.22;5006032;28;20242;-80
2022/11/02 00:13:37;;;;;;;30.90;13.20;;;;;;;10.44;81.83;95504.75;5005139;28;20184;-80
2022/11/02 00:16:09;;;;;;;28.17;12.40;;;;;;;10.42;81.81;95502.31;5003277;28;20629;-81
2022/11/02 00:18:35;;;;;;;28.10;12.93;;;;;;;10.35;81.41;95482.22;4986604;28;20173;-79
2022/11/02 00:21:02;;;;;;;30.57;13.53;;;;;;;10.32;81.31;95477.34;5002424;28;20691;-80
2022/11/02 00:23:28;;;;;;;27.77;13.73;;;;;;;10.54;81.13;95505.22;5003583;28;20255;-78
2022/11/02 00:25:55;;;;;;;32.03;12.03;;;;;;;10.50;80.94;95496.06;5003291;28;20208;-80
2022/11/02 00:28:21;;;;;;;27.00;13.60;;;;;;;10.49;81.15;95497.06;5004004;28;20181;-80
2022/11/02 00:30:46;;;;;;;28.53;13.10;;;;;;;10.47;80.99;95499.09;5003338;28;20231;-80
2022/11/02 00:33:12;;;;;;;27.27;11.93;;;;;;;10.46;81.26;95498.31;5007711;28;20206;-80
2022/11/02 00:35:38;;;;;;;26.30;11.73;;;;;;;10.41;80.64;95490.16;5006252;28;20192;-80
2022/11/02 00:38:04;;;;;;;27.53;12.73;;;;;;;10.43;81.01;95497.84;5003629;28;20173;-80
2022/11/02 00:40:30;;;;;;;31.83;13.10;;;;;;;10.42;80.91;95490.97;5002967;28;20192;-80
2022/11/02 00:42:55;;;;;;;25.73;12.30;;;;;;;10.38;80.70;95490.53;5003972;28;20181;-80
2022/11/02 00:45:21;;;;;;;33.47;13.77;;;;;;;10.38;81.07;95489.75;5005555;28;20223;-80
2022/11/02 00:47:47;;;;;;;28.97;12.67;;;;;;;10.38;81.04;95495.00;5005906;28;20192;-80
2022/11/02 00:50:14;;;;;;;27.70;12.77;;;;;;;10.38;80.96;95500.28;5003113;28;20230;-80
2022/11/02 00:52:41;;;;;;;24.97;13.17;;;;;;;10.11;81.03;95459.78;5009138;28;20177;-80
2022/11/02 00:55:08;;;;;;;26.33;13.30;;;;;;;10.31;81.56;95494.94;5014383;28;20287;-80
2022/11/02 00:57:37;;;;;;;25.03;13.00;;;;;;;10.11;81.15;95470.31;5014006;28;20184;-80
2022/11/02 01:00:03;;;;;;;35.20;12.67;;;;;;;10.22;81.28;95496.09;5014313;28;20165;-80
2022/11/02 01:02:29;;;;;;;29.77;14.07;;;;;;;10.13;81.56;95490.13;5013985;28;20157;-80
2022/11/02 01:04:54;;;;;;;28.27;14.37;;;;;;;10.08;81.62;95479.41;5014143;28;20314;-80
2022/11/02 01:07:20;;;;;;;29.17;14.60;;;;;;;10.23;81.93;95499.53;5013869;28;20203;-80
2022/11/02 01:09:45;;;;;;;34.33;15.33;;;;;;;10.06;81.46;95481.41;5009124;28;20304;-81
2022/11/02 01:12:10;;;;;;;26.67;13.67;;;;;;;10.01;81.50;95468.03;5002146;28;20173;-82
2022/11/02 01:14:36;;;;;;;29.57;13.87;;;;;;;10.19;81.45;95497.31;5010687;28;20177;-81
2022/11/02 01:17:02;;;;;;;31.63;14.83;;;;;;;10.14;82.00;95488.31;5002592;28;20251;-80
2022/11/02 01:19:27;;;;;;;28.47;13.77;;;;;;;10.14;81.97;95504.94;5010855;28;20199;-80
2022/11/02 01:21:52;;;;;;;30.30;15.37;;;;;;;10.12;81.94;95500.84;5002414;28;21007;-80
2022/11/02 01:24:18;;;;;;;29.50;14.60;;;;;;;9.76;81.92;95449.22;5002324;28;20533;-80
2022/11/02 01:26:48;;;;;;;25.33;13.93;;;;;;;10.02;81.84;95501.22;5002646;28;20201;-81
2022/11/02 01:29:13;;;;;;;26.77;13.00;;;;;;;9.89;81.78;95490.56;5002745;28;20173;-80
2022/11/02 01:31:38;;;;;;;22.70;10.27;;;;;;;9.86;82.25;95484.91;5003346;28;20652;-80
2022/11/02 01:34:04;;;;;;;23.20;12.03;;;;;;;9.77;82.40;95476.34;5005115;28;20208;-80
2022/11/02 01:36:29;;;;;;;24.10;10.80;;;;;;;9.80;82.43;95482.00;4997595;28;20200;-80
2022/11/02 01:38:55;;;;;;;25.97;11.87;;;;;;;9.82;82.20;95485.28;4987081;28;20180;-80
2022/11/02 01:41:20;;;;;;;22.40;10.90;;;;;;;9.80;82.52;95479.38;5005288;28;20184;-80
2022/11/02 01:43:50;;;;;;;18.10;9.70;;;;;;;9.71;82.33;95456.03;5004806;28;20264;-80
2022/11/02 01:46:23;;;;;;;21.70;10.30;;;;;;;9.73;82.43;95468.00;5005002;28;20274;-80
2022/11/02 01:48:57;;;;;;;26.87;11.30;;;;;;;9.70;82.33;95471.00;5013703;28;20169;-80
2022/11/02 01:51:31;;;;;;;25.33;10.67;;;;;;;9.45;82.36;95431.19;5004942;28;20641;-80
2022/11/02 01:54:01;;;;;;;24.33;9.87;;;;;;;9.66;82.29;95464.53;5004138;28;20175;-81
2022/11/02 01:56:30;;;;;;;27.00;10.77;;;;;;;9.64;82.43;95468.31;5001883;28;20561;-80
2022/11/02 01:59:01;;;;;;;18.37;9.57;;;;;;;9.56;82.83;95458.75;5001622;28;20185;-80
2022/11/02 02:01:26;;;;;;;23.97;9.53;;;;;;;9.59;82.93;95463.66;5001984;28;20187;-81
2022/11/02 02:03:53;;;;;;;18.33;9.07;;;;;;;9.51;82.61;95466.41;5001422;28;20263;-80
2022/11/02 02:06:18;;;;;;;20.33;9.10;;;;;;;9.50;83.62;95462.16;5012791;28;20258;-80
2022/11/02 02:08:47;;;;;;;18.43;8.93;;;;;;;9.51;83.04;95460.34;5004823;28;20176;-79
2022/11/02 02:11:32;;;;;;;26.00;10.40;;;;;;;9.40;84.09;95462.47;5003219;28;20270;-79
2022/11/02 02:14:18;;;;;;;20.27;9.63;;;;;;;9.41;83.99;95461.47;5000224;28;20544;-80
2022/11/02 02:16:47;;;;;;;17.43;10.10;;;;;;;9.38;84.25;95464.47;5006164;28;20192;-80
2022/11/02 02:19:28;;;;;;;24.07;10.07;;;;;;;9.24;84.51;95439.09;5012865;28;20180;-80
2022/11/02 02:22:13;;;;;;;22.53;9.73;;;;;;;9.39;84.23;95460.84;5001083;28;20200;-81
2022/11/02 02:24:56;;;;;;;22.90;11.10;;;;;;;9.46;84.35;95456.47;5001432;28;20173;-80
2022/11/02 02:27:59;;;;;;;18.67;11.00;;;;;;;9.46;84.25;95459.09;4993059;28;20675;-81
2022/11/02 02:30:27;;;;;;;23.83;9.83;;;;;;;9.46;83.79;95451.19;4993227;28;20173;-81
2022/11/02 02:33:01;;;;;;;19.87;10.63;;;;;;;9.52;83.71;95457.50;4993115;28;20177;-81
2022/11/02 02:35:40;;;;;;;17.17;9.67;;;;;;;9.49;83.66;95457.09;4997040;28;20252;-81
2022/11/02 02:38:13;;;;;;;19.77;10.20;;;;;;;9.37;83.18;95439.19;5007853;28;20183;-81
2022/11/02 02:40:56;;;;;;;20.83;10.50;;;;;;;9.41;83.20;95450.16;5007968;28;20176;-81
2022/11/02 02:43:33;;;;;;;17.03;9.83;;;;;;;9.19;83.16;95417.81;5007870;28;20268;-81
2022/11/02 02:46:24;;;;;;;17.83;9.93;;;;;;;9.37;83.18;95454.13;5007027;28;20298;-81
2022/11/02 02:48:55;;;;;;;19.50;9.23;;;;;;;9.44;83.23;95455.81;4998679;28;20213;-81
2022/11/02 02:51:32;;;;;;;21.93;10.17;;;;;;;9.28;83.59;95424.56;5005187;28;20180;-80
2022/11/02 02:54:08;;;;;;;18.23;8.93;;;;;;;9.25;83.99;95424.97;5012623;28;20204;-81
2022/11/02 02:56:41;;;;;;;16.13;9.47;;;;;;;9.49;83.78;95463.16;4987560;28;20618;-81
2022/11/02 02:59:14;;;;;;;18.93;9.57;;;;;;;9.35;84.43;95443.81;5007210;28;20177;-81
2022/11/02 03:01:42;;;;;;;30.70;10.90;;;;;;;9.36;83.26;95457.75;5016012;28;20260;-80
2022/11/02 03:04:12;;;;;;;26.13;10.83;;;;;;;9.34;84.31;95462.41;5007587;28;20180;-81
2022/11/02 03:06:39;;;;;;;29.50;10.53;;;;;;;9.33;84.20;95458.97;5007376;28;20231;-81
2022/11/02 03:09:14;;;;;;;16.17;9.87;;;;;;;9.34;83.53;95462.41;5007433;28;20176;-81
2022/11/02 03:11:48;;;;;;;19.93;9.80;;;;;;;9.31;83.46;95466.22;5010739;28;20244;-82
2022/11/02 03:15:00;;;;;;;18.53;10.20;;;;;;;9.29;83.47;95462.16;5018055;28;20563;-80
2022/11/02 03:17:49;;;;;;;20.90;9.77;;;;;;;9.28;83.89;95465.78;4962877;28;20275;-80
2022/11/02 03:20:23;;;;;;;27.17;10.20;;;;;;;9.28;84.52;95466.59;5004558;28;20184;-80
2022/11/02 03:23:06;;;;;;;18.17;9.13;;;;;;;9.22;84.43;95456.03;5007395;28;20186;-80
2022/11/02 03:26:00;;;;;;;15.47;8.73;;;;;;;9.19;85.20;95464.28;4989001;28;20254;-82
2022/11/02 03:28:31;;;;;;;16.17;8.77;;;;;;;9.18;84.93;95463.44;5009260;28;20181;-82
2022/11/02 03:31:07;;;;;;;20.80;9.90;;;;;;;9.20;84.49;95466.72;5015965;28;20192;-81
2022/11/02 03:33:36;;;;;;;17.63;8.20;;;;;;;9.15;84.29;95457.78;5015741;28;20168;-80
2022/11/02 03:36:08;;;;;;;18.47;8.93;;;;;;;9.10;84.96;95466.19;5006675;28;20176;-81
2022/11/02 03:38:45;;;;;;;24.10;7.93;;;;;;;9.12;84.41;95463.41;5006706;28;20223;-80
2022/11/02 03:41:12;;;;;;;21.23;9.23;;;;;;;9.13;84.05;95462.41;5007002;28;20176;-80
2022/11/02 03:43:40;;;;;;;13.80;8.47;;;;;;;8.98;84.16;95438.81;5006538;28;20234;-80
2022/11/02 03:46:07;;;;;;;17.33;8.80;;;;;;;9.14;83.92;95461.41;5005585;28;20252;-81
2022/11/02 03:48:41;;;;;;;26.37;9.27;;;;;;;9.10;83.96;95463.56;4997317;28;21072;-80
2022/11/02 03:51:12;;;;;;;25.60;10.27;;;;;;;9.04;83.90;95445.94;5001708;28;20180;-81
2022/11/02 03:53:47;;;;;;;17.37;8.87;;;;;;;9.04;83.62;95459.91;4995773;28;20558;-81
2022/11/02 03:56:25;;;;;;;17.40;9.10;;;;;;;8.99;83.99;95462.25;4995759;28;20157;-80
2022/11/02 03:58:51;;;;;;;25.63;9.83;;;;;;;8.96;84.38;95456.56;4995462;28;20176;-80
2022/11/02 04:01:19;;;;;;;26.10;8.73;;;;;;;9.00;84.25;95449.94;4996231;28;20169;-80
2022/11/02 04:03:46;;;;;;;25.50;9.87;;;;;;;8.79;84.13;95418.41;5006488;28;20203;-81
2022/11/02 04:06:12;;;;;;;21.87;10.47;;;;;;;8.98;84.88;95450.13;5006429;28;20265;-81
2022/11/02 04:08:46;;;;;;;20.37;9.53;;;;;;;9.00;84.81;95452.56;4998715;28;20184;-81
2022/11/02 04:16:41;;;;;;;24.80;12.70;;;;;;;8.90;84.74;95463.38;5009022;28;20263;-80
2022/11/02 04:19:26;;;;;;;24.97;12.53;;;;;;;8.63;85.33;95428.16;5001421;28;20181;-81
2022/11/02 04:27:21;;;;;;;27.07;12.43;;;;;;;8.88;85.33;95469.81;4995590;28;20211;-81
2022/11/02 04:29:46;;;;;;;28.17;13.10;;;;;;;8.87;85.41;95466.38;4999571;28;20177;-80
2022/11/02 04:32:12;;;;;;;29.37;13.63;;;;;;;8.89;84.95;95463.56;5001657;28;20649;-81
2022/11/02 04:34:37;;;;;;;29.13;15.37;;;;;;;8.92;84.94;95460.56;5007541;28;20200;-80
2022/11/02 04:38:39;;;;;;;21.33;13.87;;;;;;;8.46;84.83;95392.63;5013403;28;20195;-82
2022/11/02 04:39:51;;;;;;;36.60;17.43;;;;;;;8.83;84.88;95467.72;5003657;28;20181;-81
2022/11/02 04:42:16;;;;;;;34.87;20.07;;;;;;;8.83;85.03;95467.72;5007158;28;20605;-81
2022/11/02 04:44:42;;;;;;;42.93;23.70;;;;;;;8.72;84.73;95451.66;5005184;28;20295;-81
2022/11/02 04:47:08;;;;;;;37.07;20.80;;;;;;;8.70;84.73;95463.16;4994264;28;20197;-81
2022/11/02 04:49:33;;;;;;;42.50;21.97;;;;;;;8.57;84.97;95441.97;4997012;28;20563;-81
2022/11/02 04:51:59;;;;;;;35.93;21.10;;;;;;;8.67;85.47;95458.25;5013726;28;20180;-81
2022/11/02 04:54:24;;;;;;;37.43;21.97;;;;;;;8.67;85.29;95452.19;5005057;28;20228;-81
2022/11/02 04:56:50;;;;;;;40.17;23.93;;;;;;;8.56;85.51;95450.84;4987407;28;20199;-81
2022/11/02 04:59:15;;;;;;;56.57;26.07;;;;;;;8.59;85.37;95447.88;5004604;28;20176;-81
2022/11/02 05:01:41;;;;;;;43.27;25.50;;;;;;;8.72;85.69;95467.41;5003574;28;20177;-81
2022/11/02 05:04:06;;;;;;;45.97;24.47;;;;;;;8.51;85.24;95437.47;4994755;28;20632;-81
2022/11/02 05:06:31;;;;;;;59.40;27.87;;;;;;;8.52;85.88;95440.91;4994408;28;20196;-80
2022/11/02 05:08:57;;;;;;;53.43;27.80;;;;;;;8.68;85.81;95466.94;5004284;28;20172;-80
2022/11/02 05:11:23;;;;;;;52.33;28.53;;;;;;;8.74;85.27;95462.75;5009240;28;20184;-81
2022/11/02 05:13:48;;;;;;;46.73;27.23;;;;;;;8.82;84.71;95470.56;4994774;28;20582;-80
2022/11/02 05:16:15;;;;;;;51.87;26.37;;;;;;;8.84;84.99;95474.59;5007407;28;20189;-81
2022/11/02 05:18:41;;;;;;;46.60;27.30;;;;;;;8.63;85.07;95437.81;5002417;28;20648;-81
2022/11/02 05:21:08;;;;;;;46.70;27.63;;;;;;;8.93;84.59;95472.69;5005367;28;20177;-81
2022/11/02 05:23:34;;;;;;;122.13;52.53;;;;;;;8.89;83.97;95472.25;5013218;28;20195;-82
2022/11/02 05:26:05;;;;;;;213.40;97.23;;;;;;;9.05;85.06;95494.84;5014874;28;20192;-82
2022/11/02 05:28:31;;;;;;;189.60;90.93;;;;;;;9.08;85.51;95481.34;5016519;28;20184;-81
2022/11/02 05:30:59;;;;;;;148.43;70.87;;;;;;;9.29;85.86;95494.50;5011823;28;20181;-82
2022/11/02 05:33:26;;;;;;;106.60;52.40;;;;;;;9.27;85.36;95475.47;5017934;28;20557;-82
2022/11/02 05:35:53;;;;;;;69.57;39.00;;;;;;;9.50;84.58;95485.00;5008510;28;20673;-82
2022/11/02 05:38:19;;;;;;;67.23;34.60;;;;;;;9.75;84.08;95507.25;5012361;28;20204;-82
2022/11/02 05:40:51;;;;;;;59.67;29.60;;;;;;;9.70;83.09;95472.81;5014179;28;20287;-82
2022/11/02 05:43:16;;;;;;;54.67;24.57;;;;;;;9.95;81.84;95458.25;5011096;28;20664;-83
2022/11/02 05:45:41;;;;;;;57.73;28.00;;;;;;;10.60;81.30;95509.69;5010894;28;20259;-82
2022/11/02 05:48:08;;;;;;;42.63;21.40;;;;;;;10.80;78.06;95494.81;5008420;28;20194;-81
2022/11/02 05:50:33;;;;;;;44.07;21.80;;;;;;;11.20;76.53;95519.47;5007959;28;20602;-82
2022/11/02 05:52:59;;;;;;;56.47;24.57;;;;;;;11.42;76.14;95520.13;5002193;28;20195;-81
2022/11/02 05:55:24;;;;;;;52.20;23.27;;;;;;;11.59;75.16;95515.28;5003028;28;20728;-82
2022/11/02 05:57:51;;;;;;;45.20;21.57;;;;;;;11.84;75.01;95528.78;5004193;28;20172;-81
2022/11/02 06:00:16;;;;;;;49.67;23.07;;;;;;;11.88;73.77;95461.38;5004204;28;20184;-81
2022/11/02 06:02:42;;;;;;;48.10;22.37;;;;;;;12.79;71.65;95515.88;5004587;28;20621;-81
2022/11/02 06:05:07;;;;;;;38.40;18.80;;;;;;;13.49;69.54;95537.19;5003872;28;20701;-81
2022/11/02 06:07:33;;;;;;;39.17;20.30;;;;;;;13.87;68.26;95540.59;5004043;28;20175;-82
2022/11/02 06:09:58;;;;;;;35.53;19.33;;;;;;;14.17;66.20;95526.75;5004171;28;20700;-82
2022/11/02 06:12:24;;;;;;;35.57;20.20;;;;;;;14.89;64.75;95543.81;5009792;28;20242;-82
2022/11/02 06:14:49;;;;;;;38.20;17.27;;;;;;;15.64;61.99;95539.06;5002706;28;20168;-80
2022/11/02 06:17:14;;;;;;;37.50;16.25;;;;;;;16.37;58.83;95544.09;5001472;28;20251;-80
2022/11/02 06:19:40;;;;;;;31.85;16.67;;;;;;;16.49;57.14;95481.94;4998973;28;20180;-80
2022/11/02 06:22:05;;;;;;;37.05;18.40;;;;;;;16.87;56.30;95494.75;4995293;28;20184;-80
2022/11/02 06:24:33;;;;;;;40.35;15.35;;;;;;;17.57;54.82;95552.31;4992714;28;20165;-80
2022/11/02 06:26:58;;;;;;;34.60;18.73;;;;;;;17.58;54.58;95517.44;4992523;28;20193;-80
2022/11/02 06:29:24;;;;;;;30.50;14.98;;;;;;;17.89;54.14;95550.03;4993118;28;20626;-80
2022/11/02 06:31:49;;;;;;;32.15;14.55;;;;;;;17.93;53.54;95551.16;4993145;28;20157;-80
2022/11/02 06:34:15;;;;;;;26.13;13.75;;;;;;;18.10;52.73;95530.66;4992699;28;20161;-80
2022/11/02 06:36:40;;;;;;;30.95;14.88;;;;;;;18.71;51.28;95545.00;5001579;28;20182;-81
2022/11/02 06:39:05;;;;;;;26.60;12.73;;;;;;;19.36;49.53;95553.09;5001504;28;20690;-81
2022/11/02 06:41:31;;;;;;;37.63;16.65;;;;;;;20.24;47.88;95549.25;5001919;28;20181;-81
2022/11/02 06:43:56;;;;;;;32.47;14.55;;;;;;;21.34;44.96;95536.97;5003735;28;20173;-81
2022/11/02 06:46:21;;;;;;;33.92;14.57;;;;;;;22.56;41.83;95554.16;5003278;28;20582;-81
2022/11/02 06:48:47;;;;;;;35.28;14.23;;;;;;;23.65;39.30;95528.44;5003509;28;20288;-81
2022/11/02 06:51:13;;;;;;;41.50;13.82;;;;;;;24.84;36.82;95544.31;5003708;28;20246;-81
2022/11/02 06:53:38;;;;;;;33.58;14.73;;;;;;;25.80;35.84;95534.41;5003533;28;20181;-81
2022/11/02 06:56:04;;;;;;;28.05;13.98;;;;;;;26.70;34.33;95547.72;5003144;28;20209;-81
2022/11/02 06:58:29;;;;;;;42.65;15.10;;;;;;;27.50;33.33;95555.50;5003342;28;20192;-80
2022/11/02 07:01:00;;;;;;;27.95;12.82;;;;;;;27.98;31.30;95522.59;4993653;28;20181;-80
2022/11/02 07:03:26;;;;;;;42.63;14.30;;;;;;;28.51;30.91;95549.84;5003827;28;20185;-80
2022/11/02 07:05:52;;;;;;;25.67;13.02;;;;;;;28.85;30.45;95539.28;5011927;28;20295;-80
2022/11/02 07:08:19;;;;;;;29.73;12.40;;;;;;;29.27;29.45;95554.19;5002987;28;20192;-81
2022/11/02 07:10:44;;;;;;;34.28;13.00;;;;;;;29.77;28.66;95544.97;5003177;28;20176;-80
2022/11/02 07:13:10;;;;;;;22.95;11.27;;;;;;;30.00;27.05;95544.59;5011329;28;20175;-80
2022/11/02 07:15:35;;;;;;;27.05;11.15;;;;;;;30.36;27.35;95541.56;5011650;28;20184;-80
2022/11/02 07:18:01;;;;;;;19.05;10.85;;;;;;;30.56;26.70;95539.38;5003556;28;20711;-80
2022/11/02 07:20:26;;;;;;;19.77;10.15;;;;;;;30.44;26.74;95539.22;5002446;28;20307;-80
2022/11/02 07:22:57;;;;;;;31.88;12.65;;;;;;;30.14;27.56;95543.66;5002562;28;20188;-79
2022/11/02 07:25:24;;;;;;;21.00;11.60;;;;;;;29.47;27.73;95539.31;4995255;28;20253;-79
2022/11/02 07:27:49;;;;;;;24.25;10.88;;;;;;;28.83;29.52;95536.06;5004423;28;20602;-80
2022/11/02 07:30:15;;;;;;;23.33;10.60;;;;;;;28.20;29.96;95535.38;5006558;28;20185;-79
2022/11/02 07:32:42;;;;;;;32.20;11.73;;;;;;;27.43;30.31;95518.00;5012252;28;20184;-79
2022/11/02 07:35:10;;;;;;;21.90;10.27;;;;;;;26.98;31.47;95527.78;5006242;28;20254;-79
2022/11/02 07:37:36;;;;;;;20.85;10.35;;;;;;;26.43;32.28;95504.38;5005035;28;20176;-79
2022/11/02 07:40:02;;;;;;;26.35;9.35;;;;;;;26.36;32.11;95526.38;5004155;28;20727;-82
2022/11/02 07:42:27;;;;;;;21.67;10.70;;;;;;;25.76;33.98;95522.63;5003898;28;20177;-79
2022/11/02 07:44:52;;;;;;;25.25;9.63;;;;;;;25.24;35.14;95510.00;4985205;28;20274;-79
2022/11/02 07:47:18;;;;;;;21.88;10.57;;;;;;;24.58;35.04;95471.03;5005289;28;20204;-79
2022/11/02 07:49:43;;;;;;;21.95;10.15;;;;;;;24.52;35.82;95519.81;4987856;28;20177;-80
2022/11/02 07:52:09;;;;;;;23.83;10.50;;;;;;;24.31;36.58;95522.66;4999871;28;20276;-78
2022/11/02 07:54:34;;;;;;;24.08;10.55;;;;;;;23.83;37.33;95501.97;5003616;28;20183;-78
2022/11/02 07:56:59;;;;;;;22.75;11.40;;;;;;;23.80;38.63;95516.78;5006174;28;20271;-78
2022/11/02 07:59:25;;;;;;;24.85;10.02;;;;;;;23.51;37.68;95514.00;5006213;28;20192;-77
2022/11/02 08:01:50;;;;;;;29.27;10.95;;;;;;;23.08;39.11;95515.44;4999543;28;20184;-78
2022/11/02 08:04:15;;;;;;;27.20;12.05;;;;;;;22.75;39.65;95513.34;5013141;28;20173;-78
2022/11/02 08:06:41;;;;;;;25.30;11.93;;;;;;;22.71;39.52;95506.91;5010968;28;20212;-77
2022/11/02 08:09:06;;;;;;;22.20;10.75;;;;;;;22.53;39.57;95505.56;5013627;28;20644;-77
2022/11/02 08:11:32;;;;;;;36.17;11.40;;;;;;;22.32;40.04;95495.91;5013730;28;20199;-77
2022/11/02 08:13:57;;;;;;;31.17;11.63;;;;;;;22.37;40.24;95496.72;5013834;28;20577;-74
2022/11/02 08:16:23;;;;;;;22.92;11.20;;;;;;;22.38;39.58;95492.16;5013065;28;20246;-76
2022/11/02 08:18:48;;;;;;;29.40;11.57;;;;;;;22.43;39.53;95494.84;5013199;28;20179;-77
2022/11/02 08:21:13;;;;;;;24.92;11.13;;;;;;;22.51;41.46;95496.97;5013504;28;20173;-75
2022/11/02 08:23:39;;;;;;;29.58;11.05;;;;;;;22.51;41.03;95488.91;5002283;28;20184;-76
2022/11/02 08:26:04;;;;;;;23.75;11.40;;;;;;;22.54;40.56;95488.41;5000587;28;20193;-76
2022/11/02 08:28:34;;;;;;;25.23;11.77;;;;;;;22.51;40.62;95475.50;4993534;28;20547;-76
2022/11/02 08:30:59;;;;;;;27.00;11.45;;;;;;;22.49;39.88;95483.00;5007906;28;20208;-76
2022/11/02 08:33:25;;;;;;;29.25;11.93;;;;;;;22.58;40.19;95474.16;5011389;28;20215;-76
2022/11/02 08:35:52;;;;;;;35.78;13.23;;;;;;;22.81;39.90;95472.81;5012206;28;20636;-76
2022/11/02 08:38:21;;;;;;;30.13;13.00;;;;;;;22.69;39.27;95472.25;5012291;28;20216;-76
2022/11/02 08:40:46;;;;;;;23.25;12.43;;;;;;;22.52;40.05;95461.00;5012092;28;20267;-76
2022/11/02 08:43:13;;;;;;;29.20;13.18;;;;;;;22.72;39.75;95482.47;5011918;28;20732;-76
2022/11/02 08:45:40;;;;;;;34.85;14.88;;;;;;;22.89;40.07;95476.81;5011499;28;20263;-76
2022/11/02 08:48:06;;;;;;;26.42;13.15;;;;;;;22.93;39.89;95462.56;5011847;28;20183;-76
2022/11/02 08:50:32;;;;;;;33.42;13.45;;;;;;;22.89;39.26;95455.34;5011671;28;20180;-76
2022/11/02 08:52:58;;;;;;;28.90;13.32;;;;;;;23.02;38.65;95467.38;5011692;28;20227;-76
2022/11/02 08:55:23;;;;;;;27.77;13.85;;;;;;;22.93;39.70;95464.44;5011625;28;20267;-76
2022/11/02 08:57:51;;;;;;;36.53;14.15;;;;;;;22.88;40.32;95464.47;5011593;28;20271;-76
2022/11/02 09:00:19;;;;;;;34.67;14.30;;;;;;;22.78;40.12;95459.13;5011618;28;20211;-76
2022/11/02 09:03:17;;;;;;;28.58;13.45;;;;;;;22.59;39.45;95435.50;5011726;28;20185;-76
2022/11/02 09:05:45;;;;;;;27.63;12.95;;;;;;;22.83;40.25;95451.84;5009207;28;20290;-76
2022/11/02 09:08:14;;;;;;;29.67;13.38;;;;;;;23.01;40.83;95450.44;5011429;28;20695;-77
2022/11/02 09:10:39;;;;;;;33.55;15.13;;;;;;;23.11;41.05;95450.41;5006476;28;20181;-75
2022/11/02 09:13:08;;;;;;;36.05;13.48;;;;;;;23.11;39.60;95457.66;4991795;28;20703;-75
2022/11/02 09:15:35;;;;;;;28.45;14.68;;;;;;;23.21;40.85;95455.75;5010043;28;20231;-76
2022/11/02 09:18:01;;;;;;;33.47;14.02;;;;;;;23.16;39.41;95449.59;5011395;28;20211;-75
2022/11/02 09:20:27;;;;;;;30.00;13.52;;;;;;;23.18;39.24;95442.06;5011295;28;20212;-75
2022/11/02 09:22:52;;;;;;;28.33;14.20;;;;;;;23.20;39.26;95443.41;5011138;28;20188;-75
2022/11/02 09:25:18;;;;;;;36.92;13.77;;;;;;;23.25;39.67;95432.63;5010781;28;20672;-75
2022/11/02 09:27:44;;;;;;;31.13;13.95;;;;;;;23.18;39.40;95429.41;4993502;28;20239;-75
2022/11/02 09:30:11;;;;;;;33.25;13.70;;;;;;;23.16;38.97;95422.75;5011335;28;20199;-77
2022/11/02 09:32:37;;;;;;;30.75;12.02;;;;;;;23.13;39.65;95423.28;5011242;28;20704;-76
2022/11/02 09:35:06;;;;;;;29.00;11.98;;;;;;;23.15;39.03;95421.94;5010998;28;20733;-76
2022/11/02 09:37:32;;;;;;;36.83;12.93;;;;;;;23.16;40.33;95417.38;5010887;28;20267;-76
2022/11/02 09:39:57;;;;;;;31.17;12.98;;;;;;;23.25;40.25;95419.19;5010901;28;20738;-76
2022/11/02 09:43:01;;;;;;;29.73;12.68;;;;;;;23.20;39.26;95411.16;5002846;28;20199;-76
2022/11/02 09:45:30;;;;;;;39.75;13.93;;;;;;;23.19;39.51;95409.53;5009468;28;20239;-76
2022/11/02 09:48:02;;;;;;;36.08;14.18;;;;;;;23.17;39.33;95414.41;5010658;28;20183;-76
2022/11/02 09:50:43;;;;;;;29.55;13.13;;;;;;;23.14;38.38;95400.72;4998175;28;20196;-76
2022/11/02 09:53:16;;;;;;;44.75;12.20;;;;;;;22.99;39.00;95380.09;5008354;28;20194;-76
2022/11/02 09:55:48;;;;;;;41.58;13.27;;;;;;;23.01;38.81;95394.03;5011066;28;20273;-76
2022/11/02 09:58:18;;;;;;;37.25;12.15;;;;;;;22.99;39.32;95392.72;5010705;28;20222;-76
2022/11/02 10:00:50;;;;;;;26.00;11.73;;;;;;;22.91;39.21;95389.53;5010694;28;20181;-76
2022/11/02 10:03:24;;;;;;;25.77;11.15;;;;;;;22.85;39.59;95395.97;5010606;28;20187;-76
2022/11/02 10:06:03;;;;;;;33.03;11.93;;;;;;;22.79;40.86;95380.97;5010648;28;20295;-76
2022/11/02 10:08:37;;;;;;;26.13;12.13;;;;;;;22.71;40.91;95378.84;5010606;28;20206;-76
2022/11/02 10:11:22;;;;;;;28.35;11.15;;;;;;;22.77;40.88;95380.44;5008792;28;20632;-76
2022/11/02 10:13:57;;;;;;;28.40;11.68;;;;;;;22.81;40.35;95372.66;5010945;28;20600;-77
2022/11/02 10:16:36;;;;;;;32.90;11.52;;;;;;;22.79;39.34;95374.81;4997981;28;20175;-75
2022/11/02 10:19:10;;;;;;;21.23;10.60;;;;;;;22.79;40.06;95362.19;5008903;28;20180;-76
2022/11/02 10:21:37;;;;;;;32.17;11.27;;;;;;;22.83;40.72;95360.53;5010483;28;20211;-75
2022/11/02 10:24:38;;;;;;;27.33;9.80;;;;;;;22.82;40.16;95358.97;5010569;28;20282;-75
2022/11/02 10:27:14;;;;;;;24.85;9.88;;;;;;;22.76;40.41;95349.31;5007521;28;20201;-75
2022/11/02 10:29:48;;;;;;;19.80;9.43;;;;;;;22.77;40.80;95358.16;4991528;28;20176;-74
2022/11/02 10:32:15;;;;;;;27.40;9.45;;;;;;;22.76;40.99;95346.63;4991245;28;20188;-74
2022/11/02 10:34:43;;;;;;;19.23;8.15;;;;;;;22.67;40.45;95328.63;4991179;28;20204;-74
2022/11/02 10:38:05;;;;;;;15.80;8.68;;;;;;;22.85;40.18;95347.66;4991167;28;20711;-75
2022/11/02 10:40:43;;;;;;;16.77;8.10;;;;;;;22.85;40.94;95336.91;4946703;29;20286;-75
2022/11/02 10:43:15;;;;;;;25.15;8.77;;;;;;;22.90;40.51;95333.41;4949686;29;20186;-75
2022/11/02 10:45:55;;;;;;;25.25;7.55;;;;;;;22.95;41.33;95328.00;4985997;28;20225;-75
2022/11/02 10:48:39;;;;;;;16.15;5.25;;;;;;;23.09;40.88;95325.53;4998614;28;20177;-76
2022/11/02 10:51:12;;;;;;;23.33;5.82;;;;;;;23.24;39.74;95317.38;5009659;28;20187;-76
2022/11/02 10:53:43;;;;;;;12.02;4.07;;;;;;;23.38;39.00;95322.91;5009201;28;20262;-77
2022/11/02 10:56:16;;;;;;;15.80;5.22;;;;;;;23.46;39.95;95322.31;5009997;28;20660;-77
2022/11/02 10:59:09;;;;;;;14.82;4.38;;;;;;;23.55;37.66;95315.28;5014373;28;20606;-77
2022/11/02 11:01:35;;;;;;;20.73;3.92;;;;;;;23.59;37.72;95317.16;5014134;28;20183;-77
2022/11/02 11:04:03;;;;;;;15.23;4.05;;;;;;;23.74;37.02;95310.03;5014061;28;20187;-76
2022/11/02 11:06:30;;;;;;;12.82;3.63;;;;;;;23.80;37.27;95308.91;5013825;28;20308;-76
2022/11/02 11:09:02;;;;;;;15.35;4.40;;;;;;;23.79;36.84;95285.78;5013825;28;20180;-77
2022/11/02 11:11:31;;;;;;;19.27;4.38;;;;;;;23.69;36.30;95262.50;5013449;28;20184;-76
2022/11/02 11:14:25;;;;;;;21.17;4.18;;;;;;;23.94;36.49;95288.34;5013703;28;20191;-77
2022/11/02 11:16:53;;;;;;;12.13;3.65;;;;;;;24.00;35.60;95289.88;5013162;28;20566;-75
2022/11/02 11:19:18;;;;;;;11.95;3.58;;;;;;;24.07;35.65;95287.66;5013891;28;20207;-76
2022/11/02 11:21:44;;;;;;;16.85;4.85;;;;;;;24.13;35.12;95289.19;5013324;28;20539;-77
2022/11/02 11:24:30;;;;;;;13.80;3.65;;;;;;;24.20;32.81;95280.81;5013377;28;20216;-77
2022/11/02 11:27:00;;;;;;;12.20;3.10;;;;;;;24.20;31.62;95273.53;5013249;28;20216;-75
2022/11/02 11:29:30;;;;;;;8.73;3.28;;;;;;;24.28;32.68;95277.53;5013565;28;20220;-76
2022/11/02 11:31:55;;;;;;;14.02;3.72;;;;;;;24.28;31.80;95272.13;4984499;28;20204;-77
2022/11/02 11:34:27;;;;;;;10.90;2.88;;;;;;;24.25;31.58;95264.63;5004613;28;20649;-76
2022/11/02 11:37:02;;;;;;;19.55;3.45;;;;;;;24.29;31.05;95269.16;5003276;28;20274;-76
2022/11/02 11:39:30;;;;;;;10.95;3.45;;;;;;;24.34;31.48;95263.72;5012469;28;20251;-76
2022/11/02 11:41:56;;;;;;;14.35;3.05;;;;;;;24.33;30.93;95264.81;5005570;28;20181;-76
2022/11/02 11:44:22;;;;;;;11.82;3.00;;;;;;;24.19;30.85;95236.16;5008929;28;20176;-78